Time;durP1;ratioP1;P1;durP2;ratioP2;P2;SDS_P1;SDS_P2;PMS_P1;PMS_P2;Temp;Humidity;BMP_temperature;BMP_pressure;BME280_temperature;BME280_humidity;BME280_pressure;Samples;Min_cycle;Max_cycle;Signal;HPM_P1;HPM_P2
2023/04/27 00:01:05;;;;;;;5.73;3.50;;;7.70;63.10;;;;;;20925789;28;20243;-67
2023/04/27 00:11:07;;;;;;;6.83;3.70;;;7.70;63.70;;;;;;20924996;28;20202;-68
2023/04/27 00:21:09;;;;;;;7.20;3.87;;;7.50;64.10;;;;;;20924062;28;20293;-67
2023/04/27 00:31:11;;;;;;;7.43;3.83;;;7.50;64.60;;;;;;20923723;28;20209;-66
2023/04/27 00:41:13;;;;;;;10.87;3.73;;;7.60;65.10;;;;;;20922556;28;20232;-66
2023/04/27 00:51:14;;;;;;;7.30;3.73;;;7.60;65.90;;;;;;20921954;28;20275;-66
2023/04/27 01:01:19;;;;;;;4.93;3.50;;;;;;;;;;20921072;28;20320;-66
2023/04/27 01:11:21;;;;;;;10.97;4.50;;;7.60;66.20;;;;;;20920400;28;20300;-68
2023/04/27 01:21:23;;;;;;;9.83;4.37;;;7.50;66.90;;;;;;20919376;28;20231;-68
2023/04/27 01:31:25;;;;;;;7.67;4.00;;;7.50;67.50;;;;;;20917871;28;20660;-65
2023/04/27 01:41:26;;;;;;;8.03;3.90;;;7.40;67.90;;;;;;20917727;28;20306;-67
2023/04/27 01:51:28;;;;;;;7.87;4.40;;;7.30;68.60;;;;;;20917117;28;20238;-66
2023/04/27 02:01:30;;;;;;;6.50;3.80;;;7.30;69.20;;;;;;20916424;28;20249;-66
2023/04/27 02:11:32;;;;;;;6.27;3.90;;;7.30;69.40;;;;;;20915130;28;20661;-66
2023/04/27 02:21:33;;;;;;;7.10;4.20;;;7.30;70.00;;;;;;20913790;28;20281;-66
2023/04/27 02:31:35;;;;;;;7.17;3.90;;;7.10;70.80;;;;;;20914588;28;20216;-66
2023/04/27 02:41:36;;;;;;;10.17;4.10;;;7.10;71.40;;;;;;20913561;28;20236;-65
2023/04/27 02:51:38;;;;;;;7.90;4.23;;;6.80;72.10;;;;;;20913191;28;20268;-65
2023/04/27 03:01:40;;;;;;;9.53;4.43;;;6.70;72.90;;;;;;20912937;28;20282;-65
2023/04/27 03:11:42;;;;;;;9.33;4.00;;;6.80;73.60;;;;;;20912505;28;20712;-68
2023/04/27 03:21:43;;;;;;;6.27;3.87;;;6.90;74.20;;;;;;20911701;28;20699;-68
2023/04/27 03:31:45;;;;;;;15.30;3.77;;;6.90;74.70;;;;;;20928251;28;20207;-69
2023/04/27 03:41:47;;;;;;;5.93;4.00;;;7.00;75.10;;;;;;20927112;28;20266;-68
2023/04/27 03:51:48;;;;;;;10.57;4.40;;;7.00;75.10;;;;;;20926422;28;20212;-69
2023/04/27 04:01:50;;;;;;;9.07;4.87;;;6.80;76.20;;;;;;20925828;28;20264;-69
2023/04/27 04:11:52;;;;;;;8.13;4.13;;;6.90;76.50;;;;;;20925040;28;20205;-68
2023/04/27 04:21:55;;;;;;;6.67;4.30;;;;;;;;;;20924172;28;20576;-69
2023/04/27 04:31:57;;;;;;;8.13;4.40;;;6.80;77.20;;;;;;20923821;28;20620;-68
2023/04/27 04:41:59;;;;;;;11.27;4.30;;;6.90;77.90;;;;;;20922017;28;20244;-69
2023/04/27 04:52:02;;;;;;;8.93;4.30;;;6.90;78.40;;;;;;20921144;28;20254;-69
2023/04/27 05:02:04;;;;;;;11.53;4.63;;;7.10;78.30;;;;;;20920880;28;20575;-68
2023/04/27 05:12:06;;;;;;;23.57;5.10;;;;;;;;;;20920120;28;20296;-68
2023/04/27 05:30:27;;;;;;;12.90;5.43;;;7.60;79.20;;;;;;21068155;28;20518;-64
2023/04/27 05:40:29;;;;;;;25.03;5.27;;;7.70;79.50;;;;;;21067482;28;20666;-67
2023/04/27 05:50:31;;;;;;;13.73;5.57;;;8.00;79.70;;;;;;21065801;28;20204;-66
2023/04/27 06:00:32;;;;;;;20.60;6.20;;;8.20;79.60;;;;;;21064962;28;20671;-67
2023/04/27 06:10:34;;;;;;;22.23;5.70;;;8.40;79.40;;;;;;21064159;28;20259;-66
2023/04/27 06:20:36;;;;;;;21.50;6.03;;;8.60;78.50;;;;;;21064348;28;20199;-66
2023/04/27 06:30:37;;;;;;;15.07;4.83;;;8.70;78.10;;;;;;21147228;28;20211;-66
2023/04/27 06:40:40;;;;;;;16.57;5.20;;;8.80;76.90;;;;;;21096511;28;20597;-66
2023/04/27 06:50:43;;;;;;;27.23;5.27;;;8.90;76.30;;;;;;21089703;28;20237;-67
2023/04/27 07:00:44;;;;;;;19.10;5.30;;;9.10;76.00;;;;;;21089511;28;20550;-67
2023/04/27 07:10:46;;;;;;;14.00;4.87;;;9.60;75.00;;;;;;21087854;28;20218;-67
2023/04/27 07:20:48;;;;;;;11.13;4.83;;;9.60;75.40;;;;;;21086249;28;20234;-67
2023/04/27 07:30:50;;;;;;;11.33;4.47;;;9.80;74.90;;;;;;21086624;28;20607;-65
2023/04/27 07:40:53;;;;;;;9.03;4.50;;;10.40;71.80;;;;;;21085288;28;20205;-67
2023/04/27 07:50:55;;;;;;;8.20;3.87;;;10.60;71.70;;;;;;21083420;28;20217;-66
2023/04/27 08:00:56;;;;;;;9.10;3.93;;;11.10;69.90;;;;;;21084145;28;20212;-67
2023/04/27 08:10:58;;;;;;;8.07;3.67;;;11.70;67.80;;;;;;21082661;28;20261;-67
2023/04/27 08:21:00;;;;;;;8.13;3.83;;;12.40;63.50;;;;;;21081758;28;20300;-67
2023/04/27 08:31:02;;;;;;;10.67;3.93;;;12.70;61.40;;;;;;21081346;28;20208;-68
2023/04/27 08:41:03;;;;;;;7.07;3.53;;;12.70;61.20;;;;;;21080351;28;20720;-68
2023/04/27 08:51:23;;;;;;;9.87;4.17;;;13.20;58.20;;;;;;21079757;28;20218;-68
2023/04/27 09:01:26;;;;;;;6.97;4.20;;;13.20;58.60;;;;;;21079167;28;20234;-67
2023/04/27 09:11:36;;;;;;;7.23;3.80;;;13.30;57.70;;;;;;21078421;28;20216;-67
2023/04/27 09:21:38;;;;;;;7.60;4.30;;;13.50;56.80;;;;;;21077765;28;20732;-67
2023/04/27 09:31:40;;;;;;;7.77;4.40;;;13.60;55.40;;;;;;21077969;28;20205;-66
2023/04/27 09:41:42;;;;;;;9.77;5.47;;;13.70;54.10;;;;;;21077065;28;20222;-66
2023/04/27 09:51:44;;;;;;;10.70;4.60;;;13.90;54.20;;;;;;21076921;28;20203;-67
2023/04/27 10:01:54;;;;;;;13.53;5.13;;;;;;;;;;21076117;28;20232;-68
2023/04/27 10:11:57;;;;;;;10.03;5.20;;;;;;;;;;21082639;28;20247;-68
2023/04/27 10:22:07;;;;;;;37.03;22.07;;;;;;;;;;21090957;28;20573;-66
2023/04/27 10:32:09;;;;;;;11.17;6.47;;;;;;;;;;21091352;28;20250;-66
2023/04/27 10:42:11;;;;;;;9.53;4.60;;;;;;;;;;21090206;28;20280;-67
2023/04/27 10:52:13;;;;;;;9.43;5.07;;;14.30;50.40;;;;;;21088396;28;20724;-69
2023/04/27 11:02:15;;;;;;;6.90;4.53;;;15.20;49.70;;;;;;21087979;28;20633;-68
2023/04/27 11:12:17;;;;;;;7.10;4.30;;;15.40;48.80;;;;;;21068797;28;20234;-67
2023/04/27 11:22:19;;;;;;;9.47;4.80;;;16.00;47.80;;;;;;21086230;28;20606;-67
2023/04/27 11:32:22;;;;;;;7.43;3.97;;;16.10;47.60;;;;;;21085843;28;20243;-66
2023/04/27 11:42:27;;;;;;;10.70;4.70;;;16.80;46.70;;;;;;21084715;28;20229;-67
2023/04/27 11:52:35;;;;;;;8.07;4.57;;;16.90;47.30;;;;;;21084092;28;20218;-67
2023/04/27 12:02:37;;;;;;;10.33;4.73;;;17.60;46.20;;;;;;21083617;28;20322;-67
2023/04/27 12:12:39;;;;;;;7.30;4.20;;;17.70;46.30;;;;;;21082493;28;20228;-71
2023/04/27 12:22:41;;;;;;;8.30;4.20;;;18.10;45.90;;;;;;21081442;28;20271;-67
2023/04/27 12:32:43;;;;;;;11.10;5.07;;;18.10;44.90;;;;;;21078757;28;20260;-67
2023/04/27 12:42:45;;;;;;;9.97;4.60;;;18.30;44.70;;;;;;21078735;28;20332;-67
2023/04/27 12:52:47;;;;;;;13.03;5.00;;;18.10;44.80;;;;;;21079608;28;20220;-68
2023/04/27 13:02:50;;;;;;;6.93;4.30;;;18.60;43.40;;;;;;21078979;28;20291;-67
2023/04/27 13:12:53;;;;;;;8.40;4.23;;;18.80;43.80;;;;;;21077939;28;20210;-67
2023/04/27 13:22:55;;;;;;;8.57;4.30;;;18.90;43.50;;;;;;21076834;28;20295;-67
2023/04/27 13:32:57;;;;;;;6.53;3.83;;;18.90;43.20;;;;;;21078192;28;20208;-67
2023/04/27 13:43:11;;;;;;;10.27;4.10;;;18.90;42.80;;;;;;21079317;28;20241;-68
2023/04/27 13:53:15;;;;;;;9.23;4.30;;;19.10;42.40;;;;;;21094839;28;20251;-67
2023/04/27 14:03:17;;;;;;;11.17;4.80;;;20.00;41.30;;;;;;21093681;28;20646;-67
2023/04/27 14:13:19;;;;;;;9.90;5.50;;;19.30;41.20;;;;;;21092358;28;20235;-67
2023/04/27 14:23:21;;;;;;;5.57;3.53;;;19.50;41.80;;;;;;21091391;28;20757;-67
2023/04/27 14:33:23;;;;;;;8.00;3.33;;;20.80;41.70;;;;;;21091301;28;20214;-68
2023/04/27 14:43:25;;;;;;;7.00;3.25;;;21.60;40.20;;;;;;21090619;28;20260;-68
2023/04/27 14:53:27;;;;;;;6.97;3.60;;;26.00;38.50;;;;;;21089823;28;20215;-68
2023/04/27 15:03:32;;;;;;;8.33;3.40;;;23.30;37.50;;;;;;21088271;28;20232;-71
2023/04/27 15:13:34;;;;;;;6.00;3.10;;;23.20;36.80;;;;;;21088283;28;20200;-70
2023/04/27 15:23:36;;;;;;;6.70;3.60;;;23.10;37.30;;;;;;21086841;28;20247;-70
2023/04/27 15:33:37;;;;;;;6.07;3.17;;;21.70;38.00;;;;;;21086378;28;20738;-70
2023/04/27 15:43:39;;;;;;;7.80;3.43;;;20.80;38.60;;;;;;21085537;28;20239;-72
2023/04/27 15:53:41;;;;;;;5.70;2.90;;;20.10;39.40;;;;;;21085028;28;20273;-72
2023/04/27 16:03:42;;;;;;;9.17;2.93;;;19.60;40.20;;;;;;21084273;28;20605;-75
2023/04/27 16:13:44;;;;;;;6.63;2.90;;;22.90;40.20;;;;;;21064920;28;20663;-71
2023/04/27 16:23:46;;;;;;;8.23;2.87;;;23.80;37.80;;;;;;21082079;28;20244;-74
2023/04/27 16:33:48;;;;;;;5.23;3.00;;;22.00;38.30;;;;;;21081972;28;20585;-77
2023/04/27 16:43:49;;;;;;;7.43;2.80;;;22.10;38.90;;;;;;21051007;28;20595;-69
2023/04/27 16:53:51;;;;;;;6.97;2.70;;;23.60;39.80;;;;;;20997598;28;20213;-67
2023/04/27 17:03:53;;;;;;;5.57;2.90;;;20.90;39.80;;;;;;20996053;28;20706;-74
2023/04/27 17:13:55;;;;;;;4.07;2.93;;;20.90;40.40;;;;;;20996046;28;20246;-73
2023/04/27 17:23:56;;;;;;;5.17;3.00;;;20.40;40.60;;;;;;20995258;28;20239;-75
2023/04/27 17:33:58;;;;;;;8.60;3.40;;;20.10;41.20;;;;;;20997979;28;20214;-73
2023/04/27 17:44:00;;;;;;;5.87;2.63;;;19.30;41.30;;;;;;21035325;28;20230;-76
2023/04/27 17:54:02;;;;;;;4.13;2.73;;;18.90;41.70;;;;;;21030857;28;20223;-72
2023/04/27 18:04:05;;;;;;;8.63;3.87;;;18.60;42.50;;;;;;21036270;28;20699;-71
2023/04/27 18:14:07;;;;;;;8.37;3.10;;;18.00;43.20;;;;;;20994474;28;20209;-76
2023/04/27 18:24:09;;;;;;;5.13;2.97;;;17.40;44.40;;;;;;20994913;28;20237;-70
2023/04/27 18:34:11;;;;;;;5.73;3.93;;;16.90;45.70;;;;;;21033712;28;20240;-70
2023/04/27 18:44:13;;;;;;;7.97;4.13;;;16.50;47.50;;;;;;21049291;28;20302;-70
2023/04/27 18:54:16;;;;;;;15.80;8.50;;;16.10;48.70;;;;;;21048039;28;20299;-69
2023/04/27 19:04:17;;;;;;;11.60;6.03;;;15.70;49.40;;;;;;21043936;28;20295;-70
2023/04/27 19:14:19;;;;;;;18.30;7.03;;;15.30;51.00;;;;;;21046437;28;20203;-69
2023/04/27 19:24:21;;;;;;;8.57;5.90;;;15.20;51.70;;;;;;21045448;28;20247;-70
2023/04/27 19:34:23;;;;;;;15.03;4.90;;;15.00;52.50;;;;;;21021492;28;20222;-69
2023/04/27 19:44:24;;;;;;;6.67;4.07;;;14.90;53.50;;;;;;21045085;28;20226;-70
2023/04/27 19:54:26;;;;;;;16.20;7.33;;;14.60;55.00;;;;;;21043744;28;20269;-70
2023/04/27 20:04:31;;;;;;;7.27;4.87;;;14.50;55.80;;;;;;21027488;28;20287;-70
2023/04/27 20:14:34;;;;;;;17.23;6.20;;;14.30;56.80;;;;;;21039555;28;20235;-70
2023/04/27 20:24:37;;;;;;;13.23;6.30;;;;;;;;;;21041844;28;20239;-70
2023/04/27 20:34:39;;;;;;;10.23;5.10;;;;;;;;;;21038249;28;20207;-70
2023/04/27 20:44:45;;;;;;;12.47;5.30;;;;;;;;;;21028515;28;20308;-69
2023/04/27 20:54:47;;;;;;;10.17;5.47;;;;;;;;;;21039991;28;20206;-70
2023/04/27 21:04:49;;;;;;;9.17;5.47;;;;;;;;;;21036818;28;20710;-70
2023/04/27 21:16:22;;;;;;;12.60;5.83;;;;;;;;;;20918677;28;21092;-69
2023/04/27 21:26:24;;;;;;;12.77;7.57;;;;;;;;;;20900677;28;20212;-70
2023/04/27 21:36:27;;;;;;;13.07;7.00;;;;;;;;;;20898312;28;20218;-69
2023/04/27 21:46:29;;;;;;;14.17;6.63;;;;;;;;;;20899913;28;20234;-69
2023/04/27 21:56:31;;;;;;;15.67;7.37;;;;;;;;;;20898662;28;20300;-69
2023/04/27 22:06:33;;;;;;;17.53;7.47;;;;;;;;;;20897769;28;20213;-69
2023/04/27 22:16:35;;;;;;;22.30;6.83;;;;;;;;;;20898224;28;20214;-69
2023/04/27 22:26:38;;;;;;;16.00;6.10;;;;;;;;;;20847930;28;20205;-69
2023/04/27 22:36:40;;;;;;;11.90;6.80;;;;;;;;;;20841011;28;20216;-69
2023/04/27 22:46:42;;;;;;;11.97;6.50;;;;;;;;;;20840210;28;20217;-69
2023/04/27 22:56:45;;;;;;;15.27;6.90;;;;;;;;;;20839373;28;20255;-69
2023/04/27 23:06:47;;;;;;;11.60;6.60;;;;;;;;;;20838365;28;20246;-69
2023/04/27 23:16:49;;;;;;;12.43;6.10;;;;;;;;;;20838081;28;20214;-69
2023/04/27 23:26:51;;;;;;;14.20;6.23;;;;;;;;;;20836971;28;20242;-69
2023/04/27 23:36:53;;;;;;;17.70;6.13;;;;;;;;;;20835352;28;20232;-69
2023/04/27 23:46:55;;;;;;;9.70;6.33;;;;;;;;;;20835729;28;20256;-69
2023/04/27 23:56:57;;;;;;;13.13;6.20;;;;;;;;;;20834696;28;20205;-69
